Ana Sayfa
METAR-TAF:

METAR-TAF

Havaalanları :

Asyut, Mısır

Enlem: 27-03N, Boylam: 031-01E, yükseklik: 226 m

Güncel hava durumu gözlemi

Rapor saat 07:00 UTC de 1 saat ve 23 dakika önce yapıldı.
Rüzgar kuzeydan 8 kt
Sıcaklık 35°C
Nem 19%
Basınç 1009 hPa
Görüş mesafesi 10 km veya daha fazla
1500 m altında bulut yok ve kümülonimbus yok

METAR: HEAT 250700Z 36008KT CAVOK 35/08 Q1009 NOSIG

Saat: 10:23 (08:23 UTC)

Tahmin

Rapor saat 05:00 UTC de 3 saat ve 23 dakika önce yapıldı.
Ayın 25'si saat 06 UTC'den ayın 26'si saat 12 UTC'ye kadar geçerli Tahmin
Rüzgar kuzeydan 6 kt
Görüş mesafesi 10 km veya daha fazla
1500 m altında bulut yok ve kümülonimbus yok

TAF: HEAT 250500Z 2506/2612 35006KT CAVOK

4.000'den fazla havaalanı için hava durumu gözlemleri ve tahminleri (METAR ve TAF raporları).

Kullanılabilir istasyonlar harita üzerinde sarı ve kırmızı noktalarla gösterilir.

İstasyonun adını görmek için fareyi noktanın üzerinde gezdirin.

Sonrasında hava gözlem ve tahminlerini görmek için tıklayın.

Haritayı değiştirmek için: yaklaştırmak için siyah artı işaretli yeşil düğmeye ve uzaklaştırmak için de eksi işaretli düğmeye hızla tıklayın; bitişik haritalar için yeşil okları kullanın.


METAR-TAF: